createdAt,value
2023-04-29T00:00:44.509Z,49723.03
2023-04-29T00:03:11.517Z,49766.88
2023-04-29T00:05:38.415Z,49740.97
2023-04-29T00:08:05.804Z,49746.94
2023-04-29T00:10:32.685Z,49738.97
2023-04-29T00:12:59.446Z,49715.03
2023-04-29T00:15:26.096Z,49746.94
2023-04-29T00:17:52.769Z,49742.94
2023-04-29T00:20:19.586Z,49750.94
2023-04-29T00:22:46.319Z,49727.00
2023-04-29T00:25:13.118Z,49748.94
2023-04-29T00:27:39.887Z,49733.00
2023-04-29T00:30:08.352Z,49752.91
2023-04-29T00:32:35.147Z,49727.00
2023-04-29T00:35:02.375Z,49738.97
2023-04-29T00:37:29.265Z,49736.97
2023-04-29T00:39:55.947Z,49782.81
2023-04-29T00:42:22.706Z,49699.09
2023-04-29T00:44:49.385Z,49758.91
2023-04-29T00:47:16.104Z,49772.84
2023-04-29T00:49:43.658Z,49711.06
2023-04-29T00:52:12.481Z,49719.03
2023-04-29T00:54:39.567Z,49758.91
2023-04-29T00:57:07.355Z,49738.97
2023-04-29T00:59:34.593Z,49750.94
2023-04-29T01:02:02.914Z,49738.97
2023-04-29T01:04:30.651Z,49754.91
2023-04-29T01:06:57.481Z,49750.94
2023-04-29T01:09:29.449Z,49752.91
2023-04-29T01:12:02.065Z,49748.94
2023-04-29T01:14:29.109Z,49770.88
2023-04-29T01:17:00.394Z,49780.84
2023-04-29T01:19:45.534Z,49754.91
2023-04-29T01:22:14.526Z,49736.97
2023-04-29T01:24:41.252Z,49738.97
2023-04-29T01:27:52.576Z,49754.91
2023-04-29T01:30:40.020Z,49731.00
2023-04-29T01:33:17.486Z,49750.94
2023-04-29T01:35:54.250Z,49736.97
2023-04-29T01:38:43.848Z,49786.81
2023-04-29T01:41:13.146Z,49758.91
2023-04-29T01:43:41.160Z,49719.03
2023-04-29T01:46:21.544Z,49770.88
2023-04-29T01:48:53.906Z,49758.91
2023-04-29T01:51:21.270Z,49768.88
2023-04-29T01:53:48.413Z,49752.91
2023-04-29T01:56:15.261Z,49748.94
2023-04-29T01:58:51.392Z,49738.97
2023-04-29T02:01:51.343Z,49750.94
2023-04-29T02:04:18.908Z,49746.94
2023-04-29T02:06:46.198Z,49742.94
2023-04-29T02:09:12.864Z,49734.97
2023-04-29T02:11:45.252Z,49723.03
2023-04-29T02:14:12.643Z,49814.72
2023-04-29T02:16:40.060Z,49742.94
2023-04-29T02:19:07.259Z,49750.94
2023-04-29T02:21:35.244Z,49738.97
2023-04-29T02:24:02.607Z,49774.84
2023-04-29T02:26:29.306Z,49760.91
2023-04-29T02:28:58.010Z,49740.97
2023-04-29T02:31:24.921Z,49738.97
2023-04-29T02:33:51.611Z,49760.91
2023-04-29T02:36:18.398Z,49770.88
2023-04-29T02:38:45.115Z,49766.88
2023-04-29T02:41:19.308Z,49734.97
2023-04-29T02:43:49.178Z,49792.78
2023-04-29T02:46:16.801Z,49717.03
2023-04-29T02:48:43.514Z,49782.81
2023-04-29T02:51:10.741Z,49762.88
2023-04-29T02:53:37.694Z,49750.94
2023-04-29T02:56:05.367Z,49734.97
2023-04-29T02:58:32.121Z,49762.88
2023-04-29T03:00:58.771Z,49742.94
2023-04-29T03:03:25.766Z,49758.91
2023-04-29T03:05:52.919Z,49772.84
2023-04-29T03:08:19.610Z,49705.06
2023-04-29T03:10:46.726Z,49786.81
2023-04-29T03:13:14.018Z,49719.03
2023-04-29T03:15:41.124Z,49733.00
2023-04-29T03:18:08.144Z,49762.88
2023-04-29T03:20:35.031Z,49750.94
2023-04-29T03:23:03.917Z,49731.00
2023-04-29T03:25:31.297Z,49746.94
2023-04-29T03:27:58.066Z,49729.00
2023-04-29T03:30:24.858Z,49778.84
2023-04-29T03:32:55.327Z,49738.97
2023-04-29T03:35:22.105Z,49727.00
2023-04-29T03:38:08.740Z,49758.91
2023-04-29T03:40:37.289Z,49770.88
2023-04-29T03:43:03.961Z,49774.84
2023-04-29T03:45:31.165Z,49744.94
2023-04-29T03:47:58.123Z,49742.94
2023-04-29T03:50:26.132Z,49760.91
2023-04-29T03:52:53.363Z,49750.94
2023-04-29T03:55:20.378Z,49756.91
2023-04-29T03:57:48.081Z,49748.94
2023-04-29T04:00:17.529Z,49742.94
2023-04-29T04:02:46.951Z,49733.00
2023-04-29T04:05:14.846Z,49772.84
2023-04-29T04:07:47.255Z,49770.88
2023-04-29T04:10:32.658Z,49760.91
2023-04-29T04:13:01.704Z,49742.94
2023-04-29T04:15:28.343Z,49733.00
2023-04-29T04:17:55.462Z,49746.94
2023-04-29T04:20:22.167Z,49748.94
2023-04-29T04:22:49.846Z,49760.91
2023-04-29T04:25:20.859Z,49786.81
2023-04-29T04:27:47.968Z,49754.91
2023-04-29T04:30:24.871Z,49762.88
2023-04-29T04:32:51.852Z,49768.88
2023-04-29T04:35:18.718Z,49742.94
2023-04-29T04:37:45.512Z,49770.88
2023-04-29T04:40:13.820Z,49760.91
2023-04-29T04:43:00.810Z,49740.97
2023-04-29T04:45:31.647Z,49754.91
2023-04-29T04:47:59.322Z,49754.91
2023-04-29T04:50:31.857Z,49740.97
2023-04-29T04:52:58.539Z,49766.88
2023-04-29T04:56:01.596Z,49707.06
2023-04-29T04:58:31.893Z,49734.97
2023-04-29T05:01:01.515Z,49734.97
2023-04-29T05:03:28.604Z,49756.91
2023-04-29T05:05:57.228Z,49744.94
2023-04-29T05:08:25.045Z,49758.91
2023-04-29T05:10:54.286Z,49754.91
2023-04-29T05:13:21.800Z,49778.84
2023-04-29T05:15:49.163Z,49750.94
2023-04-29T05:18:20.872Z,49742.94
2023-04-29T05:20:50.280Z,49729.00
2023-04-29T05:23:17.180Z,49772.84
2023-04-29T05:25:45.934Z,49758.91
2023-04-29T05:28:13.018Z,49711.06
2023-04-29T05:30:41.737Z,49746.94
2023-04-29T05:33:08.685Z,49762.88
2023-04-29T05:35:35.400Z,49729.00
2023-04-29T05:38:02.056Z,49810.75
2023-04-29T05:40:36.242Z,49733.00
2023-04-29T05:43:18.672Z,49731.00
2023-04-29T05:45:47.170Z,49768.88
2023-04-29T05:48:13.813Z,49742.94
2023-04-29T05:50:40.549Z,49744.94
2023-04-29T05:53:07.703Z,49744.94
2023-04-29T05:55:34.577Z,49756.91
2023-04-29T05:58:01.248Z,49760.91
2023-04-29T06:00:28.426Z,49758.91
2023-04-29T06:03:02.252Z,49717.03
2023-04-29T06:05:29.648Z,49746.94
2023-04-29T06:08:17.252Z,49758.91
2023-04-29T06:10:46.866Z,49742.94
2023-04-29T06:13:13.766Z,49758.91
2023-04-29T06:15:40.445Z,49740.97
2023-04-29T06:18:07.149Z,49756.91
2023-04-29T06:20:36.071Z,49731.00
2023-04-29T06:23:05.324Z,49738.97
2023-04-29T06:25:32.216Z,49738.97
2023-04-29T06:28:02.321Z,49746.94
2023-04-29T06:30:30.494Z,49729.00
2023-04-29T06:32:57.212Z,49746.94
2023-04-29T06:35:23.958Z,49727.00
2023-04-29T06:38:05.013Z,49758.91
2023-04-29T06:40:50.356Z,49713.06
2023-04-29T06:43:26.810Z,49742.94
2023-04-29T06:46:13.106Z,49746.94
2023-04-29T06:48:48.298Z,49734.97
2023-04-29T06:51:15.068Z,49738.97
2023-04-29T06:53:41.751Z,49725.00
2023-04-29T06:56:08.466Z,49723.03
2023-04-29T06:58:35.171Z,49738.97
2023-04-29T07:01:04.112Z,49721.03
2023-04-29T07:03:31.205Z,49742.94
2023-04-29T07:05:57.985Z,49733.00
2023-04-29T07:08:24.785Z,49744.94
2023-04-29T07:10:57.662Z,49740.97
2023-04-29T07:13:25.240Z,49738.97
2023-04-29T07:15:52.056Z,49734.97
2023-04-29T07:18:18.929Z,49750.94
2023-04-29T07:20:47.190Z,49734.97
2023-04-29T07:23:14.936Z,49758.91
2023-04-29T07:25:41.829Z,49734.97
2023-04-29T07:28:09.256Z,49731.00
2023-04-29T07:30:36.403Z,49715.03
2023-04-29T07:33:04.648Z,49721.03
2023-04-29T07:35:31.830Z,49746.94
2023-04-29T07:37:58.621Z,49715.03
2023-04-29T07:40:26.356Z,49762.88
2023-04-29T07:42:57.434Z,49695.09
2023-04-29T07:45:24.174Z,49731.00
2023-04-29T07:47:50.859Z,49754.91
2023-04-29T07:50:17.726Z,49721.03
2023-04-29T07:52:44.393Z,49752.91
2023-04-29T07:55:11.118Z,49725.00
2023-04-29T07:57:38.339Z,49671.19
2023-04-29T08:00:05.838Z,49731.00
2023-04-29T08:02:41.590Z,49734.97
2023-04-29T08:05:10.600Z,49703.09
2023-04-29T08:07:37.658Z,49738.97
2023-04-29T08:10:04.778Z,49731.00
2023-04-29T08:12:31.857Z,49752.91
2023-04-29T08:14:58.676Z,49731.00
2023-04-29T08:17:26.040Z,49758.91
2023-04-29T08:19:53.109Z,49756.91
2023-04-29T08:22:19.968Z,49727.00
2023-04-29T08:24:46.702Z,49717.03
2023-04-29T08:27:13.445Z,49721.03
2023-04-29T08:29:40.131Z,49705.06
2023-04-29T08:32:06.980Z,49754.91
2023-04-29T08:34:36.153Z,49707.06
2023-04-29T08:37:03.455Z,49697.09
2023-04-29T08:39:31.103Z,49738.97
2023-04-29T08:41:59.406Z,49695.09
2023-04-29T08:44:30.294Z,49687.13
2023-04-29T08:46:59.847Z,49736.97
2023-04-29T08:49:28.670Z,49707.06
2023-04-29T08:51:55.382Z,49715.03
2023-04-29T08:54:22.073Z,49711.06
2023-04-29T08:56:51.724Z,49697.09
2023-04-29T08:59:20.101Z,49734.97
2023-04-29T09:01:52.073Z,49738.97
2023-04-29T09:04:21.803Z,49719.03
2023-04-29T09:06:48.732Z,49691.13
2023-04-29T09:09:16.084Z,49679.16
2023-04-29T09:11:42.921Z,49713.06
2023-04-29T09:14:09.604Z,49667.19
2023-04-29T09:16:38.349Z,49671.19
2023-04-29T09:19:05.351Z,49649.25
2023-04-29T09:21:32.457Z,49661.22
2023-04-29T09:24:01.331Z,49675.19
2023-04-29T09:26:33.806Z,49655.25
2023-04-29T09:29:16.504Z,49681.16
2023-04-29T09:31:43.304Z,49679.16
2023-04-29T09:34:11.941Z,49693.13
2023-04-29T09:36:45.659Z,49661.22
2023-04-29T09:39:22.740Z,49673.19
2023-04-29T09:41:52.421Z,49661.22
2023-04-29T09:44:27.714Z,49679.16
2023-04-29T09:47:06.434Z,49659.22
2023-04-29T09:49:40.825Z,49703.09
2023-04-29T09:52:10.821Z,49707.06
2023-04-29T09:54:39.761Z,49673.19
2023-04-29T09:57:08.324Z,49707.06
2023-04-29T09:59:36.771Z,49687.13
2023-04-29T10:02:20.843Z,49687.13
2023-04-29T10:04:54.863Z,49691.13
2023-04-29T10:07:22.617Z,49703.09
2023-04-29T10:09:49.515Z,49663.22
2023-04-29T10:12:19.931Z,49681.16
2023-04-29T10:15:04.992Z,49675.19
2023-04-29T10:17:48.886Z,49671.19
2023-04-29T10:20:22.326Z,49691.13
2023-04-29T10:22:51.289Z,49655.25
2023-04-29T10:25:23.128Z,49693.13
2023-04-29T10:27:53.077Z,49677.16
2023-04-29T10:30:20.638Z,49683.16
2023-04-29T10:32:52.179Z,49685.13
2023-04-29T10:35:23.304Z,49659.22
2023-04-29T10:37:51.362Z,49687.13
2023-04-29T10:40:36.758Z,49669.19
2023-04-29T10:43:04.671Z,49667.19
2023-04-29T10:45:34.926Z,49637.28
2023-04-29T10:48:10.745Z,49619.34
2023-04-29T10:50:37.435Z,49671.19
2023-04-29T10:53:04.988Z,49643.28
2023-04-29T10:55:35.875Z,49653.25
2023-04-29T10:58:04.573Z,49649.25
2023-04-29T11:00:38.019Z,49645.28
2023-04-29T11:03:06.394Z,49657.22
2023-04-29T11:05:35.055Z,49657.22
2023-04-29T11:08:23.574Z,49641.28
2023-04-29T11:10:54.550Z,49683.16
2023-04-29T11:13:32.928Z,49651.25
2023-04-29T11:16:10.600Z,49671.19
2023-04-29T11:18:57.228Z,49635.31
2023-04-29T11:21:24.000Z,49665.22
2023-04-29T11:23:52.228Z,49667.19
2023-04-29T11:26:21.882Z,49659.22
2023-04-29T11:28:48.801Z,49609.38
2023-04-29T11:31:15.497Z,49673.19
2023-04-29T11:33:42.235Z,49643.28
2023-04-29T11:36:11.271Z,49635.31
2023-04-29T11:38:43.533Z,49667.19
2023-04-29T11:41:11.854Z,49659.22
2023-04-29T11:43:39.915Z,49641.28
2023-04-29T11:46:16.742Z,49695.09
2023-04-29T11:48:48.143Z,49663.22
2023-04-29T11:51:16.526Z,49659.22
2023-04-29T11:53:43.582Z,49673.19
2023-04-29T11:56:11.382Z,49671.19
2023-04-29T11:58:38.261Z,49631.31
2023-04-29T12:01:05.522Z,49649.25
2023-04-29T12:03:34.057Z,49643.28
2023-04-29T12:06:02.634Z,49645.28
2023-04-29T12:08:30.434Z,49651.25
2023-04-29T12:10:57.759Z,49649.25
2023-04-29T12:13:27.551Z,49633.31
2023-04-29T12:15:55.677Z,49645.28
2023-04-29T12:18:23.467Z,49643.28
2023-04-29T12:20:56.020Z,49643.28
2023-04-29T12:23:28.937Z,49631.31
2023-04-29T12:25:57.955Z,49611.38
2023-04-29T12:28:25.301Z,49627.31
2023-04-29T12:30:56.739Z,49629.31
2023-04-29T12:33:29.894Z,49607.41
2023-04-29T12:35:58.384Z,49631.31
2023-04-29T12:38:29.998Z,49639.28
2023-04-29T12:41:05.523Z,49675.19
2023-04-29T12:43:36.209Z,49619.34
2023-04-29T12:46:04.687Z,49599.41
2023-04-29T12:48:33.404Z,49617.38
2023-04-29T12:51:02.167Z,49583.47
2023-04-29T12:53:32.368Z,49625.34
2023-04-29T12:55:59.546Z,49619.34
2023-04-29T12:58:29.805Z,49635.31
2023-04-29T13:00:57.424Z,49601.41
2023-04-29T13:03:24.946Z,49611.38
2023-04-29T13:05:53.852Z,49609.38
2023-04-29T13:08:21.090Z,49615.38
2023-04-29T13:10:47.762Z,49605.41
2023-04-29T13:13:14.370Z,49603.41
2023-04-29T13:15:41.382Z,49555.56
2023-04-29T13:18:08.353Z,49599.41
2023-04-29T13:20:41.016Z,49595.44
2023-04-29T13:23:09.055Z,49617.38
2023-04-29T13:25:36.019Z,49627.31
2023-04-29T13:28:02.966Z,49609.38
2023-04-29T13:30:29.712Z,49605.41
2023-04-29T13:32:59.854Z,49635.31
2023-04-29T13:35:31.228Z,49631.31
2023-04-29T13:37:57.927Z,49615.38
2023-04-29T13:40:27.901Z,49587.47
2023-04-29T13:43:02.555Z,49621.34
2023-04-29T13:45:38.910Z,49631.31
2023-04-29T13:48:20.951Z,49619.34
2023-04-29T13:56:46.473Z,49611.38
2023-04-29T13:59:12.416Z,49619.34
2023-04-29T14:02:14.894Z,49627.31
2023-04-29T14:04:12.311Z,49647.25
2023-04-29T14:06:39.629Z,49629.31
2023-04-29T14:09:06.410Z,49613.38
2023-04-29T14:11:36.713Z,49635.31
2023-04-29T14:14:04.348Z,49615.38
2023-04-29T14:16:31.135Z,49599.41
2023-04-29T14:18:57.866Z,49659.22
2023-04-29T14:21:24.685Z,49631.31
2023-04-29T14:23:51.353Z,49627.31
2023-04-29T14:26:27.861Z,49595.44
2023-04-29T14:28:59.866Z,49647.25
2023-04-29T14:31:29.498Z,49611.38
2023-04-29T14:33:57.137Z,49647.25
2023-04-29T14:36:24.463Z,49615.38
2023-04-29T14:38:51.222Z,49607.41
2023-04-29T14:41:18.038Z,49593.44
2023-04-29T14:43:44.676Z,49627.31
2023-04-29T14:46:11.577Z,49599.41
2023-04-29T14:48:38.458Z,49617.38
2023-04-29T14:51:06.217Z,49613.38
2023-04-29T14:53:32.869Z,49631.31
2023-04-29T14:55:59.727Z,49593.44
2023-04-29T14:58:26.451Z,49601.41
2023-04-29T15:00:53.142Z,49581.47
2023-04-29T15:03:22.436Z,49599.41
2023-04-29T15:05:51.088Z,49591.44
2023-04-29T15:08:19.042Z,49587.47
2023-04-29T15:10:49.718Z,49617.38
2023-04-29T15:13:16.510Z,49651.25
2023-04-29T15:15:43.287Z,49633.31
2023-04-29T15:18:10.220Z,49605.41
2023-04-29T15:20:37.986Z,49591.44
2023-04-29T15:23:05.735Z,49615.38
2023-04-29T15:25:36.257Z,49611.38
2023-04-29T15:28:03.906Z,49587.47
2023-04-29T15:30:30.630Z,49619.34
2023-04-29T15:32:57.637Z,49623.34
2023-04-29T15:35:24.599Z,49621.34
2023-04-29T15:37:51.399Z,49607.41
2023-04-29T15:40:18.192Z,49595.44
2023-04-29T15:42:44.885Z,49601.41
2023-04-29T15:45:11.965Z,49599.41
2023-04-29T15:47:39.578Z,49587.47
2023-04-29T15:50:07.499Z,49587.47
2023-04-29T15:52:34.109Z,49623.34
2023-04-29T15:55:00.855Z,49579.47
2023-04-29T15:57:27.523Z,49601.41
2023-04-29T15:59:54.368Z,49617.38
2023-04-29T16:02:21.578Z,49591.44
2023-04-29T16:04:48.359Z,49621.34
2023-04-29T16:07:15.201Z,49603.41
2023-04-29T16:09:42.023Z,49601.41
2023-04-29T16:12:11.601Z,49543.59
2023-04-29T16:14:38.555Z,49537.63
2023-04-29T16:17:06.028Z,49511.72
2023-04-29T16:19:34.516Z,49515.69
2023-04-29T16:22:02.813Z,49547.59
2023-04-29T16:24:29.669Z,49577.50
2023-04-29T16:26:56.544Z,49567.53
2023-04-29T16:29:23.312Z,49567.53
2023-04-29T16:31:50.311Z,49599.41
2023-04-29T16:34:17.177Z,49595.44
2023-04-29T16:36:43.861Z,49603.41
2023-04-29T16:39:10.629Z,49601.41
2023-04-29T16:41:37.525Z,49607.41
2023-04-29T16:44:04.821Z,49605.41
2023-04-29T16:46:32.533Z,49631.31
2023-04-29T16:48:59.378Z,49603.41
2023-04-29T16:51:26.489Z,49599.41
2023-04-29T16:53:53.512Z,49579.47
2023-04-29T16:56:21.673Z,49583.47
2023-04-29T16:58:48.890Z,49607.41
2023-04-29T17:01:16.379Z,49585.47
2023-04-29T17:03:43.174Z,49613.38
2023-04-29T17:06:09.990Z,49599.41
2023-04-29T17:08:36.793Z,49583.47
2023-04-29T17:11:04.938Z,49635.31
2023-04-29T17:13:31.686Z,49597.44
2023-04-29T17:15:58.709Z,49571.50
2023-04-29T17:18:25.371Z,49627.31
2023-04-29T17:20:52.043Z,49597.44
2023-04-29T17:23:18.880Z,49613.38
2023-04-29T17:25:45.611Z,49635.31
2023-04-29T17:28:12.447Z,49639.28
2023-04-29T17:30:39.104Z,49601.41
2023-04-29T17:33:06.146Z,49627.31
2023-04-29T17:35:33.678Z,49639.28
2023-04-29T17:38:00.810Z,49607.41
2023-04-29T17:40:27.681Z,49599.41
2023-04-29T17:42:54.460Z,49603.41
2023-04-29T17:45:21.258Z,49635.31
2023-04-29T17:47:48.482Z,49603.41
2023-04-29T17:50:15.414Z,49623.34
2023-04-29T17:52:42.977Z,49589.44
2023-04-29T17:55:10.556Z,49609.38
2023-04-29T17:57:38.278Z,49635.31
2023-04-29T18:00:08.538Z,49611.38
2023-04-29T18:02:35.410Z,49627.31
2023-04-29T18:05:03.452Z,49623.34
2023-04-29T18:07:30.275Z,49655.25
2023-04-29T18:09:57.741Z,49639.28
2023-04-29T18:12:24.940Z,49563.53
2023-04-29T18:14:52.040Z,49641.28
2023-04-29T18:17:19.372Z,49631.31
2023-04-29T18:19:49.718Z,49575.50
2023-04-29T18:22:16.839Z,49587.47
2023-04-29T18:24:43.816Z,49571.50
2023-04-29T18:27:10.553Z,49611.38
2023-04-29T18:29:37.278Z,49613.38
2023-04-29T18:32:06.458Z,49585.47
2023-04-29T18:34:34.813Z,49629.31
2023-04-29T18:37:01.744Z,49615.38
2023-04-29T18:39:28.865Z,49615.38
2023-04-29T18:41:56.006Z,49599.41
2023-04-29T18:44:22.741Z,49617.38
2023-04-29T18:46:49.645Z,49605.41
2023-04-29T18:49:17.873Z,49623.34
2023-04-29T18:51:48.154Z,49609.38
2023-04-29T18:54:19.137Z,49637.28
2023-04-29T18:56:48.309Z,49631.31
2023-04-29T18:59:19.424Z,49615.38
2023-04-29T19:01:47.529Z,49643.28
2023-04-29T19:04:14.451Z,49635.31
2023-04-29T19:06:42.185Z,49667.19
2023-04-29T19:09:09.085Z,49627.31
2023-04-29T19:11:36.301Z,49639.28
2023-04-29T19:14:06.193Z,49607.41
2023-04-29T19:16:34.813Z,49655.25
2023-04-29T19:19:04.180Z,49619.34
2023-04-29T19:21:33.092Z,49661.22
2023-04-29T19:24:00.069Z,49647.25
2023-04-29T19:26:26.874Z,49615.38
2023-04-29T19:28:53.598Z,49631.31
2023-04-29T19:31:20.668Z,49647.25
2023-04-29T19:33:48.130Z,49623.34
2023-04-29T19:36:14.856Z,49645.28
2023-04-29T19:38:41.905Z,49623.34
2023-04-29T19:41:08.896Z,49639.28
2023-04-29T19:43:36.120Z,49663.22
2023-04-29T19:46:02.878Z,49639.28
2023-04-29T19:48:29.631Z,49631.31
2023-04-29T19:50:59.606Z,49639.28
2023-04-29T19:53:27.313Z,49639.28
2023-04-29T19:55:54.202Z,49635.31
2023-04-29T19:58:21.009Z,49651.25
2023-04-29T20:00:48.032Z,49619.34
2023-04-29T20:03:14.855Z,49665.22
2023-04-29T20:05:41.605Z,49667.19
2023-04-29T20:08:08.309Z,49659.22
2023-04-29T20:10:35.004Z,49605.41
2023-04-29T20:13:01.787Z,49675.19
2023-04-29T20:15:28.668Z,49647.25
2023-04-29T20:17:56.076Z,49643.28
2023-04-29T20:20:24.248Z,49671.19
2023-04-29T20:22:51.001Z,49635.31
2023-04-29T20:25:17.781Z,49619.34
2023-04-29T20:27:44.444Z,49683.16
2023-04-29T20:30:11.631Z,49621.34
2023-04-29T20:32:38.580Z,49649.25
2023-04-29T20:35:05.727Z,49659.22
2023-04-29T20:37:32.360Z,49619.34
2023-04-29T20:39:59.497Z,49643.28
2023-04-29T20:42:26.180Z,49643.28
2023-04-29T20:44:52.868Z,49665.22
2023-04-29T20:47:20.558Z,49639.28
2023-04-29T20:49:47.300Z,49643.28
2023-04-29T20:52:13.962Z,49667.19
2023-04-29T20:54:40.703Z,49667.19
2023-04-29T20:57:07.369Z,49653.25
2023-04-29T20:59:34.079Z,49617.38
2023-04-29T21:02:00.883Z,49663.22
2023-04-29T21:04:27.644Z,49649.25
2023-04-29T21:06:54.349Z,49651.25
2023-04-29T21:09:21.615Z,49663.22
2023-04-29T21:11:48.497Z,49651.25
2023-04-29T21:14:15.170Z,49651.25
2023-04-29T21:16:42.645Z,49667.19
2023-04-29T21:19:09.396Z,49637.28
2023-04-29T21:21:36.070Z,49631.31
2023-04-29T21:24:03.064Z,49647.25
2023-04-29T21:26:29.707Z,49617.38
2023-04-29T21:28:56.419Z,49655.25
2023-04-29T21:31:23.142Z,49633.31
2023-04-29T21:33:49.833Z,49635.31
2023-04-29T21:36:16.677Z,49627.31
2023-04-29T21:38:43.305Z,49639.28
2023-04-29T21:41:28.320Z,49627.31
2023-04-29T21:43:57.864Z,49633.31
2023-04-29T21:46:27.786Z,49659.22
2023-04-29T21:48:57.336Z,49643.28
2023-04-29T21:51:24.039Z,49685.13
2023-04-29T21:53:51.162Z,49617.38
2023-04-29T21:56:18.139Z,49669.19
2023-04-29T21:58:44.910Z,49647.25
2023-04-29T22:01:39.635Z,49637.28
2023-04-29T22:04:06.746Z,49659.22
2023-04-29T22:06:34.553Z,49679.16
2023-04-29T22:09:01.573Z,49643.28
2023-04-29T22:11:28.961Z,49681.16
2023-04-29T22:13:55.795Z,49655.25
2023-04-29T22:16:23.548Z,49663.22
2023-04-29T22:18:50.499Z,49661.22
2023-04-29T22:21:17.902Z,49645.28
2023-04-29T22:23:44.850Z,49651.25
2023-04-29T22:26:11.617Z,49679.16
2023-04-29T22:28:38.276Z,49667.19
2023-04-29T22:31:05.548Z,49643.28
2023-04-29T22:33:32.225Z,49661.22
2023-04-29T22:35:58.921Z,49673.19
2023-04-29T22:38:25.851Z,49683.16
2023-04-29T22:40:52.781Z,49651.25
2023-04-29T22:43:19.485Z,49651.25
2023-04-29T22:45:53.586Z,49637.28
2023-04-29T22:48:20.999Z,49683.16
2023-04-29T22:50:55.243Z,49647.25
2023-04-29T22:53:22.479Z,49669.19
2023-04-29T22:55:53.090Z,49653.25
2023-04-29T22:58:20.836Z,49645.28
2023-04-29T23:00:51.513Z,49639.28
2023-04-29T23:03:18.749Z,49667.19
2023-04-29T23:05:46.054Z,49681.16
2023-04-29T23:08:12.741Z,49627.31
2023-04-29T23:10:39.367Z,49663.22
2023-04-29T23:13:06.195Z,49685.13
2023-04-29T23:15:32.966Z,49671.19
2023-04-29T23:17:59.810Z,49685.13
2023-04-29T23:20:26.529Z,49649.25
2023-04-29T23:22:53.223Z,49643.28
2023-04-29T23:25:19.974Z,49655.25
2023-04-29T23:27:46.573Z,49663.22
2023-04-29T23:30:13.224Z,49683.16
2023-04-29T23:32:39.976Z,49673.19
2023-04-29T23:35:07.194Z,49687.13
2023-04-29T23:37:33.891Z,49687.13
2023-04-29T23:40:00.642Z,49713.06
2023-04-29T23:42:27.820Z,49671.19
2023-04-29T23:44:54.532Z,49687.13
2023-04-29T23:47:21.268Z,49689.13
2023-04-29T23:49:48.341Z,49643.28
2023-04-29T23:52:14.973Z,49683.16
2023-04-29T23:54:41.596Z,49669.19
2023-04-29T23:57:08.360Z,49659.22
2023-04-29T23:59:35.158Z,49659.22
